Time;durP1;ratioP1;P1;durP2;ratioP2;P2;SDS_P1;SDS_P2;PMS_P1;PMS_P2;Temp;Humidity;BMP_temperature;BMP_pressure;BME280_temperature;BME280_humidity;BME280_pressure;Samples;Min_cycle;Max_cycle;Signal;HPM_P1;HPM_P2
2023/09/02 00:00:16;;;;;;;;;17.00;13.50;;;;;;;;5074243;28;45379;-74
2023/09/02 00:02:41;;;;;;;;;12.50;12.50;;;;;;;;5074078;27;46269;-73
2023/09/02 00:05:06;;;;;;;;;11.33;10.33;;;;;;;;5074601;28;45367;-73
2023/09/02 00:07:32;;;;;;;;;12.00;8.25;;;;;;;;5060578;27;45577;-74
2023/09/02 00:09:57;;;;;;;;;16.00;12.25;;;;;;;;5067243;28;46651;-73
2023/09/02 00:12:23;;;;;;;;;11.75;10.75;;;;;;;;5071305;28;45457;-74
2023/09/02 00:14:48;;;;;;;;;13.33;11.67;;;;;;;;5070352;27;45486;-76
2023/09/02 00:17:13;;;;;;;;;11.75;11.75;;;;;;;;5067388;28;46033;-74
2023/09/02 00:19:39;;;;;;;;;11.00;10.50;;;;;;;;5066321;28;45643;-73
2023/09/02 00:22:04;;;;;;;;;17.00;15.00;;;;;;;;5071482;28;46116;-75
2023/09/02 00:24:29;;;;;;;;;11.00;11.00;;;;;;;;5068799;28;45891;-72
2023/09/02 00:26:55;;;;;;;;;13.25;11.75;;;;;;;;5066680;28;45434;-73
2023/09/02 00:29:20;;;;;;;;;11.50;10.25;;;;;;;;5073939;28;45631;-74
2023/09/02 00:31:45;;;;;;;;;13.00;11.25;;;;;;;;5072112;28;47878;-76
2023/09/02 00:34:11;;;;;;;;;11.75;11.50;;;;;;;;5069125;28;45400;-69
2023/09/02 00:36:36;;;;;;;;;15.75;13.75;;;;;;;;5073070;28;45823;-71
2023/09/02 00:39:06;;;;;;;;;12.25;12.25;;;;;;;;5073571;27;45786;-72
2023/09/02 00:41:46;;;;;;;;;14.75;12.25;;;;;;;;5071866;28;45298;-72
2023/09/02 00:44:12;;;;;;;;;10.50;9.75;;;;;;;;5063382;27;45476;-73
2023/09/02 00:46:37;;;;;;;;;12.00;10.75;;;;;;;;5073015;28;45399;-75
2023/09/02 00:49:03;;;;;;;;;14.75;12.75;;;;;;;;5071830;28;46028;-74
2023/09/02 00:51:28;;;;;;;;;17.50;13.25;;;;;;;;5067100;27;45994;-73
2023/09/02 00:53:54;;;;;;;;;19.50;11.75;;;;;;;;5067165;28;45397;-74
2023/09/02 00:56:19;;;;;;;;;11.25;10.25;;;;;;;;5073229;27;45368;-74
2023/09/02 00:58:45;;;;;;;;;14.25;10.25;;;;;;;;5072285;27;45901;-75
2023/09/02 01:01:10;;;;;;;;;12.50;11.50;;;;;;;;5063514;27;45375;-74
2023/09/02 01:03:36;;;;;;;;;17.25;13.25;;;;;;;;5071224;28;45788;-74
2023/09/02 01:06:03;;;;;;;;;14.25;7.25;;;;;;;;5071942;28;45428;-73
2023/09/02 01:08:29;;;;;;;;;14.33;13.00;;;;;;;;5070239;27;45971;-74
2023/09/02 01:10:55;;;;;;;;;15.25;10.75;;;;;;;;5070684;28;46311;-76
2023/09/02 01:13:20;;;;;;;;;15.25;12.75;;;;;;;;5071527;27;45326;-74
2023/09/02 01:15:48;;;;;;;;;12.50;11.25;;;;;;;;5073840;27;45290;-74
2023/09/02 01:18:14;;;;;;;;;13.00;12.00;;;;;;;;5066239;28;46400;-75
2023/09/02 01:20:42;;;;;;;;;12.50;10.75;;;;;;;;5071998;28;48093;-74
2023/09/02 01:23:07;;;;;;;;;9.25;6.25;;;;;;;;5066410;27;45337;-74
2023/09/02 01:25:48;;;;;;;;;12.00;9.75;;;;;;;;5062113;28;45976;-73
2023/09/02 01:28:17;;;;;;;;;10.25;9.00;;;;;;;;5068205;27;45461;-74
2023/09/02 01:30:45;;;;;;;;;10.33;9.67;;;;;;;;5055764;28;45660;-74
2023/09/02 01:33:12;;;;;;;;;8.50;8.50;;;;;;;;5072513;27;45480;-74
2023/09/02 01:35:38;;;;;;;;;11.33;11.33;;;;;;;;5072538;28;45812;-73
2023/09/02 01:38:03;;;;;;;;;9.33;9.33;;;;;;;;5072278;27;45662;-73
2023/09/02 01:40:30;;;;;;;;;10.00;8.67;;;;;;;;5072748;27;45452;-73
2023/09/02 01:42:59;;;;;;;;;11.75;9.00;;;;;;;;5070840;27;45814;-73
2023/09/02 01:45:25;;;;;;;;;10.25;7.75;;;;;;;;5071616;28;45796;-73
2023/09/02 01:47:51;;;;;;;;;7.50;7.00;;;;;;;;5072489;27;45724;-72
2023/09/02 01:50:16;;;;;;;;;8.75;7.50;;;;;;;;5069029;27;46137;-74
2023/09/02 01:52:42;;;;;;;;;9.33;9.33;;;;;;;;5070909;27;45432;-73
2023/09/02 01:55:08;;;;;;;;;11.00;9.50;;;;;;;;5064827;28;45557;-75
2023/09/02 01:57:34;;;;;;;;;12.50;10.75;;;;;;;;5064370;28;46142;-72
2023/09/02 01:59:59;;;;;;;;;15.25;10.50;;;;;;;;5059166;28;46110;-73
2023/09/02 02:02:24;;;;;;;;;9.75;9.25;;;;;;;;5071481;28;45328;-72
2023/09/02 02:04:51;;;;;;;;;12.50;10.75;;;;;;;;5070363;27;45699;-74
2023/09/02 02:07:19;;;;;;;;;11.00;8.00;;;;;;;;5066393;27;45713;-73
2023/09/02 02:09:49;;;;;;;;;8.25;8.25;;;;;;;;5071625;27;45561;-73
2023/09/02 02:12:14;;;;;;;;;17.00;12.00;;;;;;;;5068743;28;45367;-74
2023/09/02 02:14:39;;;;;;;;;22.00;18.00;;;;;;;;5067577;27;46078;-72
2023/09/02 02:17:06;;;;;;;;;19.00;17.33;;;;;;;;5064649;27;46934;-72
2023/09/02 02:19:32;;;;;;;;;14.00;11.67;;;;;;;;5065400;27;45584;-73
2023/09/02 02:21:58;;;;;;;;;27.00;25.00;;;;;;;;5069587;28;45527;-74
2023/09/02 02:24:23;;;;;;;;;26.00;18.33;;;;;;;;5065192;27;45411;-74
2023/09/02 02:26:49;;;;;;;;;24.00;22.67;;;;;;;;5061015;28;46278;-74
2023/09/02 02:29:14;;;;;;;;;28.00;25.00;;;;;;;;5061915;28;46914;-74
2023/09/02 02:31:39;;;;;;;;;25.33;20.33;;;;;;;;5071412;28;45461;-73
2023/09/02 02:34:05;;;;;;;;;23.33;19.67;;;;;;;;5066153;27;45725;-72
2023/09/02 02:36:30;;;;;;;;;24.33;19.33;;;;;;;;5068823;28;45961;-73
2023/09/02 02:38:55;;;;;;;;;22.00;18.33;;;;;;;;5067381;28;45406;-72
2023/09/02 02:41:21;;;;;;;;;21.33;18.00;;;;;;;;5070057;27;45548;-75
2023/09/02 02:43:46;;;;;;;;;20.67;15.67;;;;;;;;5063571;27;45589;-72
2023/09/02 02:46:11;;;;;;;;;21.67;18.67;;;;;;;;5060440;27;45761;-72
2023/09/02 02:48:36;;;;;;;;;14.00;13.00;;;;;;;;5070299;28;46087;-72
2023/09/02 02:51:02;;;;;;;;;17.00;13.67;;;;;;;;5072936;27;45798;-73
2023/09/02 02:53:27;;;;;;;;;9.67;8.00;;;;;;;;5073300;28;45422;-73
2023/09/02 02:55:53;;;;;;;;;11.67;10.67;;;;;;;;5071831;28;46535;-73
2023/09/02 02:58:18;;;;;;;;;11.00;10.00;;;;;;;;5069490;27;46234;-73
2023/09/02 03:00:44;;;;;;;;;10.33;9.67;;;;;;;;5072538;28;45530;-74
2023/09/02 03:03:10;;;;;;;;;6.33;6.00;;;;;;;;5070084;28;45652;-72
2023/09/02 03:05:36;;;;;;;;;10.50;7.75;;;;;;;;5072862;28;45891;-73
2023/09/02 03:08:02;;;;;;;;;9.67;7.67;;;;;;;;5074720;28;45348;-73
2023/09/02 03:10:27;;;;;;;;;11.25;7.25;;;;;;;;5074675;27;45293;-73
2023/09/02 03:12:52;;;;;;;;;9.67;8.00;;;;;;;;5072550;28;45631;-73
2023/09/02 03:15:17;;;;;;;;;8.33;7.00;;;;;;;;5072745;28;45380;-72
2023/09/02 03:17:43;;;;;;;;;10.25;8.25;;;;;;;;5069205;28;46984;-72
2023/09/02 03:20:08;;;;;;;;;9.00;9.00;;;;;;;;5069510;28;45448;-75
2023/09/02 03:22:33;;;;;;;;;11.67;8.67;;;;;;;;5073439;28;45368;-75
2023/09/02 03:24:59;;;;;;;;;11.33;9.67;;;;;;;;5070553;28;46095;-73
2023/09/02 03:27:24;;;;;;;;;10.25;8.25;;;;;;;;5066919;28;45336;-72
2023/09/02 03:29:50;;;;;;;;;14.33;8.67;;;;;;;;5073971;28;45716;-73
2023/09/02 03:32:16;;;;;;;;;8.33;7.00;;;;;;;;5073524;27;45504;-72
2023/09/02 03:34:41;;;;;;;;;11.67;8.67;;;;;;;;5072990;28;45695;-73
2023/09/02 03:37:06;;;;;;;;;7.00;5.00;;;;;;;;5074314;27;45898;-74
2023/09/02 03:39:33;;;;;;;;;6.00;6.00;;;;;;;;5074556;27;45646;-73
2023/09/02 03:41:59;;;;;;;;;7.00;6.00;;;;;;;;5074059;28;45459;-75
2023/09/02 03:44:24;;;;;;;;;5.75;5.75;;;;;;;;5071983;27;45285;-75
2023/09/02 03:46:50;;;;;;;;;5.25;4.50;;;;;;;;5054386;28;45757;-74
2023/09/02 03:49:15;;;;;;;;;7.50;4.25;;;;;;;;5061843;28;45390;-75
2023/09/02 03:51:42;;;;;;;;;7.75;5.25;;;;;;;;5074438;27;45367;-73
2023/09/02 03:54:08;;;;;;;;;7.00;4.75;;;;;;;;5059678;27;45773;-73
2023/09/02 03:56:36;;;;;;;;;8.25;6.00;;;;;;;;5063959;28;47200;-73
2023/09/02 03:59:02;;;;;;;;;8.75;7.50;;;;;;;;5071732;28;45463;-73
2023/09/02 04:01:27;;;;;;;;;7.00;6.00;;;;;;;;5073294;27;45842;-73
2023/09/02 04:03:52;;;;;;;;;6.00;6.00;;;;;;;;5071997;27;45443;-73
2023/09/02 04:06:18;;;;;;;;;10.33;9.00;;;;;;;;5065753;27;45903;-73
2023/09/02 04:08:43;;;;;;;;;8.00;7.75;;;;;;;;5064938;28;45616;-73
2023/09/02 04:11:08;;;;;;;;;9.75;8.00;;;;;;;;5067975;28;45670;-73
2023/09/02 04:13:33;;;;;;;;;9.25;8.00;;;;;;;;5072387;28;45953;-75
2023/09/02 04:16:02;;;;;;;;;4.75;4.75;;;;;;;;5065364;27;46581;-73
2023/09/02 04:18:28;;;;;;;;;8.50;7.75;;;;;;;;5061771;28;45715;-71
2023/09/02 04:20:54;;;;;;;;;3.00;3.00;;;;;;;;5064530;28;45765;-71
2023/09/02 04:23:21;;;;;;;;;6.00;6.00;;;;;;;;5072658;28;45452;-71
2023/09/02 04:25:50;;;;;;;;;5.50;5.00;;;;;;;;5073403;27;46949;-72
2023/09/02 04:28:16;;;;;;;;;7.50;5.75;;;;;;;;5058434;28;45622;-73
2023/09/02 04:30:42;;;;;;;;;4.00;4.00;;;;;;;;5064447;28;45286;-72
2023/09/02 04:33:08;;;;;;;;;7.00;7.00;;;;;;;;5073294;27;46339;-73
2023/09/02 04:35:40;;;;;;;;;8.75;7.50;;;;;;;;5072823;28;45927;-74
2023/09/02 04:38:06;;;;;;;;;16.67;8.00;;;;;;;;5073362;27;45406;-73
2023/09/02 04:40:38;;;;;;;;;7.00;5.33;;;;;;;;5073301;27;45301;-73
2023/09/02 04:43:07;;;;;;;;;4.33;4.33;;;;;;;;5071578;28;46094;-73
2023/09/02 04:45:33;;;;;;;;;5.50;5.00;;;;;;;;5073116;27;46327;-74
2023/09/02 04:47:58;;;;;;;;;5.00;5.00;;;;;;;;5065669;27;45846;-73
2023/09/02 04:50:23;;;;;;;;;2.00;2.00;;;;;;;;5056713;28;45591;-73
2023/09/02 04:52:49;;;;;;;;;3.00;3.00;;;;;;;;5064455;28;45584;-73
2023/09/02 04:55:15;;;;;;;;;5.50;3.50;;;;;;;;5070653;27;45891;-73
2023/09/02 04:57:40;;;;;;;;;10.67;7.00;;;;;;;;5072330;28;45375;-73
2023/09/02 05:00:06;;;;;;;;;5.00;5.00;;;;;;;;5071601;28;46056;-73
2023/09/02 05:02:32;;;;;;;;;9.33;5.00;;;;;;;;5068752;27;45670;-72
2023/09/02 05:04:57;;;;;;;;;6.25;5.25;;;;;;;;5072009;28;45415;-74
2023/09/02 05:07:23;;;;;;;;;6.75;5.00;;;;;;;;5068993;27;45450;-74
2023/09/02 05:09:49;;;;;;;;;6.00;6.00;;;;;;;;5062276;28;45531;-73
2023/09/02 05:12:14;;;;;;;;;5.50;3.75;;;;;;;;5072991;27;45669;-73
2023/09/02 05:14:40;;;;;;;;;4.00;4.00;;;;;;;;5072936;28;45360;-72
2023/09/02 05:17:05;;;;;;;;;5.00;4.00;;;;;;;;5069819;28;45319;-74
2023/09/02 05:19:30;;;;;;;;;5.00;4.00;;;;;;;;5071752;28;45350;-72
2023/09/02 05:21:57;;;;;;;;;4.00;4.00;;;;;;;;5060761;28;45635;-74
2023/09/02 05:24:22;;;;;;;;;5.50;4.50;;;;;;;;5069126;28;47195;-72
2023/09/02 05:26:47;;;;;;;;;4.50;4.00;;;;;;;;5067202;28;45728;-72
2023/09/02 05:29:12;;;;;;;;;6.25;5.75;;;;;;;;5066172;28;45612;-74
2023/09/02 05:31:38;;;;;;;;;5.50;5.50;;;;;;;;5072980;28;45382;-72
2023/09/02 05:34:03;;;;;;;;;5.00;5.00;;;;;;;;5072145;27;45422;-73
2023/09/02 05:36:28;;;;;;;;;6.50;4.25;;;;;;;;5069798;28;45388;-72
2023/09/02 05:38:53;;;;;;;;;7.00;5.00;;;;;;;;5071279;27;45456;-74
2023/09/02 05:41:19;;;;;;;;;4.75;3.50;;;;;;;;5069357;28;46552;-73
2023/09/02 05:43:44;;;;;;;;;3.00;3.00;;;;;;;;5071621;27;46950;-74
2023/09/02 05:46:09;;;;;;;;;5.00;5.00;;;;;;;;5064178;27;45830;-73
2023/09/02 05:48:34;;;;;;;;;4.25;3.50;;;;;;;;5071099;27;45892;-72
2023/09/02 05:51:00;;;;;;;;;4.50;3.00;;;;;;;;5067454;27;45447;-72
2023/09/02 05:53:25;;;;;;;;;6.75;4.25;;;;;;;;5067674;28;46722;-77
2023/09/02 05:55:54;;;;;;;;;3.50;3.00;;;;;;;;5061134;27;45804;-75
2023/09/02 05:58:19;;;;;;;;;6.75;4.75;;;;;;;;5069277;27;45773;-76
2023/09/02 06:00:45;;;;;;;;;4.25;2.25;;;;;;;;5067095;28;47105;-75
2023/09/02 06:03:10;;;;;;;;;4.00;4.00;;;;;;;;5066967;28;46799;-74
2023/09/02 06:05:35;;;;;;;;;4.00;3.50;;;;;;;;5066208;28;46246;-75
2023/09/02 06:08:01;;;;;;;;;5.00;4.75;;;;;;;;5070912;27;45710;-76
2023/09/02 06:10:26;;;;;;;;;4.00;3.00;;;;;;;;5067490;28;45937;-75
2023/09/02 06:12:51;;;;;;;;;5.75;3.50;;;;;;;;5068456;27;45968;-73
2023/09/02 06:15:16;;;;;;;;;5.00;4.00;;;;;;;;5068647;27;45612;-72
2023/09/02 06:17:42;;;;;;;;;4.25;3.00;;;;;;;;5068697;28;45758;-70
2023/09/02 06:20:07;;;;;;;;;4.00;4.00;;;;;;;;5068818;28;45697;-72
2023/09/02 06:22:32;;;;;;;;;4.00;2.25;;;;;;;;5059170;28;46045;-74
2023/09/02 06:24:59;;;;;;;;;4.00;4.00;;;;;;;;5071817;28;45491;-77
2023/09/02 06:27:24;;;;;;;;;3.25;3.00;;;;;;;;5069348;27;45482;-74
2023/09/02 06:29:50;;;;;;;;;5.50;4.00;;;;;;;;5070941;27;45770;-74
2023/09/02 06:32:15;;;;;;;;;4.00;3.00;;;;;;;;5065238;28;45813;-77
2023/09/02 06:34:40;;;;;;;;;4.00;4.00;;;;;;;;5072668;28;46964;-74
2023/09/02 06:37:06;;;;;;;;;6.00;5.00;;;;;;;;5059250;27;46354;-74
2023/09/02 06:39:31;;;;;;;;;8.25;5.00;;;;;;;;5068062;28;45619;-74
2023/09/02 06:41:56;;;;;;;;;3.50;3.50;;;;;;;;5072615;27;45717;-74
2023/09/02 06:44:22;;;;;;;;;7.25;5.00;;;;;;;;5064264;27;45756;-75
2023/09/02 06:46:47;;;;;;;;;5.50;4.00;;;;;;;;5068306;27;45889;-75
2023/09/02 06:49:12;;;;;;;;;5.25;4.50;;;;;;;;5071769;28;46293;-74
2023/09/02 06:51:38;;;;;;;;;4.75;3.25;;;;;;;;5072578;27;46622;-74
2023/09/02 06:54:03;;;;;;;;;5.25;3.25;;;;;;;;5070989;27;45894;-75
2023/09/02 06:56:28;;;;;;;;;6.00;4.75;;;;;;;;5067037;27;45887;-76
2023/09/02 06:58:53;;;;;;;;;5.25;4.00;;;;;;;;5076746;27;45422;-75
2023/09/02 07:01:23;;;;;;;;;2.75;2.75;;;;;;;;5072166;27;46701;-74
2023/09/02 07:03:48;;;;;;;;;3.50;3.50;;;;;;;;5069488;28;45735;-78
2023/09/02 07:06:15;;;;;;;;;6.00;5.00;;;;;;;;5064880;27;45666;-74
2023/09/02 07:08:40;;;;;;;;;3.25;3.25;;;;;;;;5067393;27;45510;-74
2023/09/02 07:11:06;;;;;;;;;6.25;4.50;;;;;;;;5067990;28;45807;-74
2023/09/02 07:13:32;;;;;;;;;4.50;4.25;;;;;;;;5070790;27;45935;-75
2023/09/02 07:16:01;;;;;;;;;3.50;3.50;;;;;;;;5067572;27;45499;-75
2023/09/02 07:18:26;;;;;;;;;3.00;3.00;;;;;;;;5068121;27;45397;-74
2023/09/02 07:20:51;;;;;;;;;4.75;3.00;;;;;;;;5074553;27;47373;-74
2023/09/02 07:23:17;;;;;;;;;3.00;3.00;;;;;;;;5069654;28;45519;-74
2023/09/02 07:25:42;;;;;;;;;2.00;2.00;;;;;;;;5068283;28;45662;-74
2023/09/02 07:28:07;;;;;;;;;2.00;2.00;;;;;;;;5069223;27;45810;-75
2023/09/02 07:30:36;;;;;;;;;4.50;3.75;;;;;;;;5066569;27;46484;-76
2023/09/02 07:33:01;;;;;;;;;2.75;2.75;;;;;;;;5068167;27;45906;-73
2023/09/02 07:35:27;;;;;;;;;4.50;2.25;;;;;;;;5068920;28;45716;-74
2023/09/02 07:37:52;;;;;;;;;3.00;3.00;;;;;;;;5068078;28;45783;-74
2023/09/02 07:40:17;;;;;;;;;2.75;2.75;;;;;;;;5065324;28;45610;-77
2023/09/02 07:42:42;;;;;;;;;3.00;3.00;;;;;;;;5065118;28;45340;-73
2023/09/02 07:45:08;;;;;;;;;3.50;3.50;;;;;;;;5065943;28;45486;-73
2023/09/02 07:47:33;;;;;;;;;7.00;5.00;;;;;;;;5068843;27;45334;-74
2023/09/02 07:49:58;;;;;;;;;3.50;3.50;;;;;;;;5072311;27;45936;-73
2023/09/02 07:52:24;;;;;;;;;3.00;3.00;;;;;;;;5069018;28;45537;-73
2023/09/02 07:54:49;;;;;;;;;4.75;3.75;;;;;;;;5070448;28;45439;-73
2023/09/02 07:57:14;;;;;;;;;3.75;3.75;;;;;;;;5066189;28;45636;-73
2023/09/02 07:59:40;;;;;;;;;5.50;4.75;;;;;;;;5063365;28;45692;-77
2023/09/02 08:02:05;;;;;;;;;8.00;6.75;;;;;;;;5071787;28;45405;-76
2023/09/02 08:04:31;;;;;;;;;7.75;6.00;;;;;;;;5069573;28;46000;-72
2023/09/02 08:06:56;;;;;;;;;7.25;5.00;;;;;;;;5070265;28;45805;-71
2023/09/02 08:09:21;;;;;;;;;8.50;7.00;;;;;;;;5068475;27;45302;-70
2023/09/02 08:11:46;;;;;;;;;13.25;13.00;;;;;;;;5069996;28;46866;-71
2023/09/02 08:14:12;;;;;;;;;10.50;8.75;;;;;;;;5067456;27;45379;-71
2023/09/02 08:16:37;;;;;;;;;9.00;7.00;;;;;;;;5067833;27;45653;-72
2023/09/02 08:19:02;;;;;;;;;8.50;6.50;;;;;;;;5065685;27;45647;-72
2023/09/02 08:21:27;;;;;;;;;11.25;7.25;;;;;;;;5069946;28;45480;-74
2023/09/02 08:23:52;;;;;;;;;7.50;7.50;;;;;;;;5069744;28;45556;-73
2023/09/02 08:26:18;;;;;;;;;6.00;6.00;;;;;;;;5067756;28;45634;-73
2023/09/02 08:28:44;;;;;;;;;6.50;5.75;;;;;;;;5069654;27;46378;-73
2023/09/02 08:31:11;;;;;;;;;14.75;12.25;;;;;;;;5071500;27;45778;-72
2023/09/02 08:33:36;;;;;;;;;6.00;4.75;;;;;;;;5070964;27;45669;-71
2023/09/02 08:36:02;;;;;;;;;5.25;5.25;;;;;;;;5073007;28;45489;-73
2023/09/02 08:38:27;;;;;;;;;5.75;5.75;;;;;;;;5065160;28;46640;-73
2023/09/02 08:40:53;;;;;;;;;25.00;21.67;;;;;;;;5066035;28;45823;-72
2023/09/02 08:43:20;;;;;;;;;18.25;14.50;;;;;;;;5069820;28;45486;-72
2023/09/02 08:45:49;;;;;;;;;4.00;4.00;;;;;;;;5068329;27;45834;-71
2023/09/02 08:48:21;;;;;;;;;6.00;5.00;;;;;;;;5073894;27;45375;-74
2023/09/02 08:50:53;;;;;;;;;4.60;4.60;;;;;;;;5068793;27;45744;-75
2023/09/02 08:53:37;;;;;;;;;3.25;3.25;;;;;;;;5068644;28;45841;-71
2023/09/02 08:56:04;;;;;;;;;5.00;4.00;;;;;;;;5074704;27;45644;-74
2023/09/02 08:58:38;;;;;;;;;5.50;5.50;;;;;;;;5071669;28;46612;-76
2023/09/02 09:01:03;;;;;;;;;5.20;4.00;;;;;;;;5073006;28;45390;-73
2023/09/02 09:03:29;;;;;;;;;3.00;3.00;;;;;;;;5062591;27;45712;-76
2023/09/02 09:05:55;;;;;;;;;4.50;4.50;;;;;;;;5070502;28;44824;-74
2023/09/02 09:08:22;;;;;;;;;2.75;2.75;;;;;;;;5070778;27;45723;-73
2023/09/02 09:10:48;;;;;;;;;3.00;1.60;;;;;;;;5068136;27;45672;-76
2023/09/02 09:13:16;;;;;;;;;1.50;1.50;;;;;;;;5071402;28;45797;-74
2023/09/02 09:15:41;;;;;;;;;2.00;2.00;;;;;;;;5070434;28;46897;-73
2023/09/02 09:18:09;;;;;;;;;1.00;1.00;;;;;;;;5072597;27;45621;-74
2023/09/02 09:20:34;;;;;;;;;4.00;2.80;;;;;;;;5072144;27;45756;-73
2023/09/02 09:22:59;;;;;;;;;2.50;2.50;;;;;;;;5072791;27;45532;-74
2023/09/02 09:25:24;;;;;;;;;2.25;2.25;;;;;;;;5070979;28;46653;-73
2023/09/02 09:27:50;;;;;;;;;1.75;1.75;;;;;;;;5069439;27;46095;-72
2023/09/02 09:30:28;;;;;;;;;3.75;3.50;;;;;;;;5071161;28;45441;-71
2023/09/02 09:32:56;;;;;;;;;3.00;3.00;;;;;;;;5067434;28;45327;-72
2023/09/02 09:35:22;;;;;;;;;1.50;1.50;;;;;;;;5072344;27;45867;-76
2023/09/02 09:37:53;;;;;;;;;3.25;3.25;;;;;;;;5072143;27;45456;-75
2023/09/02 09:40:29;;;;;;;;;5.00;3.00;;;;;;;;5065969;28;45755;-74
2023/09/02 09:42:55;;;;;;;;;1.75;1.75;;;;;;;;5067954;28;45336;-75
2023/09/02 09:45:20;;;;;;;;;1.25;1.25;;;;;;;;5071334;28;46277;-75
2023/09/02 09:47:45;;;;;;;;;3.25;2.75;;;;;;;;5072239;28;45590;-75
2023/09/02 09:50:15;;;;;;;;;1.50;1.50;;;;;;;;5071853;27;45348;-75
2023/09/02 09:52:40;;;;;;;;;20.25;20.25;;;;;;;;5065789;28;45400;-75
2023/09/02 09:55:05;;;;;;;;;3.00;3.00;;;;;;;;5057184;28;45507;-74
2023/09/02 09:57:37;;;;;;;;;2.00;2.00;;;;;;;;5068943;28;46368;-73
2023/09/02 10:00:05;;;;;;;;;2.60;2.60;;;;;;;;5073746;28;45572;-70
2023/09/02 10:02:30;;;;;;;;;3.50;3.00;;;;;;;;5075894;28;45786;-72
2023/09/02 10:04:56;;;;;;;;;2.00;2.00;;;;;;;;5075875;27;45921;-70
2023/09/02 10:07:31;;;;;;;;;2.50;1.25;;;;;;;;5071333;27;45416;-69
2023/09/02 10:10:00;;;;;;;;;3.25;2.50;;;;;;;;5073671;28;46652;-69
2023/09/02 10:12:27;;;;;;;;;2.00;2.00;;;;;;;;5070978;28;45824;-68
2023/09/02 10:15:00;;;;;;;;;3.00;2.00;;;;;;;;5067904;28;45861;-70
2023/09/02 10:17:26;;;;;;;;;1.50;1.50;;;;;;;;5071219;27;46205;-68
2023/09/02 10:19:51;;;;;;;;;1.75;1.75;;;;;;;;5062854;27;45400;-72
2023/09/02 10:22:20;;;;;;;;;2.00;2.00;;;;;;;;5075216;27;45399;-70
2023/09/02 10:24:51;;;;;;;;;2.00;2.00;;;;;;;;5066844;27;45753;-71
2023/09/02 10:27:20;;;;;;;;;1.25;1.25;;;;;;;;5072496;27;46025;-71
2023/09/02 10:29:56;;;;;;;;;3.80;1.40;;;;;;;;5065191;28;45728;-72
2023/09/02 10:32:26;;;;;;;;;1.50;1.50;;;;;;;;5074221;27;45401;-70
2023/09/02 10:35:10;;;;;;;;;3.00;1.50;;;;;;;;5063344;27;45735;-69
2023/09/02 10:37:46;;;;;;;;;3.25;2.00;;;;;;;;5069927;28;46514;-70
2023/09/02 10:40:15;;;;;;;;;1.00;1.00;;;;;;;;5066199;27;45739;-68
2023/09/02 10:42:40;;;;;;;;;1.00;1.00;;;;;;;;5062379;28;45392;-70
2023/09/02 10:45:06;;;;;;;;;2.00;2.00;;;;;;;;5073650;28;46521;-69
2023/09/02 10:47:32;;;;;;;;;3.00;3.00;;;;;;;;5062756;27;45828;-70
2023/09/02 10:49:58;;;;;;;;;3.00;2.75;;;;;;;;5067818;27;45759;-70
2023/09/02 10:52:23;;;;;;;;;1.00;1.00;;;;;;;;5066325;27;45807;-71
2023/09/02 10:55:10;;;;;;;;;2.25;0.75;;;;;;;;5070569;28;45816;-68
2023/09/02 10:57:51;;;;;;;;;2.00;2.00;;;;;;;;5060252;28;48237;-69
2023/09/02 11:00:20;;;;;;;;;3.80;2.60;;;;;;;;5070381;28;45740;-74
2023/09/02 11:02:46;;;;;;;;;1.00;1.00;;;;;;;;5055912;27;45455;-71
2023/09/02 11:05:12;;;;;;;;;0.25;0.25;;;;;;;;5054060;28;45445;-70
2023/09/02 11:07:39;;;;;;;;;1.50;1.50;;;;;;;;5057573;28;47138;-70
2023/09/02 11:10:05;;;;;;;;;1.00;1.00;;;;;;;;5058085;28;45552;-69
2023/09/02 11:12:30;;;;;;;;;2.00;2.00;;;;;;;;5065788;28;45540;-71
2023/09/02 11:15:14;;;;;;;;;1.25;1.25;;;;;;;;5061374;28;45465;-71
2023/09/02 11:17:40;;;;;;;;;1.00;1.00;;;;;;;;5063542;27;46212;-71
2023/09/02 11:20:06;;;;;;;;;0.40;0.40;;;;;;;;5059910;28;45494;-69
2023/09/02 11:22:53;;;;;;;;;1.00;1.00;;;;;;;;5070565;28;45413;-70
2023/09/02 11:25:38;;;;;;;;;1.00;1.00;;;;;;;;5065148;28;45805;-71
2023/09/02 11:28:04;;;;;;;;;1.50;1.50;;;;;;;;5059144;27;46755;-71
2023/09/02 11:30:34;;;;;;;;;1.00;1.00;;;;;;;;5055282;28;45743;-71
2023/09/02 11:33:03;;;;;;;;;1.00;1.00;;;;;;;;5053691;28;45707;-71
2023/09/02 11:42:13;;;;;;;;;1.80;1.80;;;;;;;;5022889;28;45493;-72
2023/09/02 11:45:00;;;;;;;;;2.75;1.50;;;;;;;;5026089;28;45825;-73
2023/09/02 11:47:34;;;;;;;;;1.00;1.00;;;;;;;;5019216;28;45717;-74
2023/09/02 11:49:59;;;;;;;;;0.00;0.00;;;;;;;;5038652;27;46655;-73
2023/09/02 11:55:35;;;;;;;;;3.00;3.00;;;;;;;;5059860;28;45581;-72
2023/09/02 11:58:06;;;;;;;;;1.00;1.00;;;;;;;;5064601;27;45924;-73
2023/09/02 12:00:32;;;;;;;;;0.00;0.00;;;;;;;;5062422;27;45961;-75
2023/09/02 12:02:59;;;;;;;;;1.00;1.00;;;;;;;;5069185;27;45672;-73
2023/09/02 12:05:28;;;;;;;;;1.00;1.00;;;;;;;;5064058;27;45817;-71
2023/09/02 12:07:53;;;;;;;;;0.25;0.00;;;;;;;;5072123;27;46433;-74
2023/09/02 12:10:19;;;;;;;;;3.00;3.00;;;;;;;;5065619;28;45508;-72
2023/09/02 12:12:46;;;;;;;;;1.00;1.00;;;;;;;;5066942;27;45821;-75
2023/09/02 12:15:11;;;;;;;;;2.00;2.00;;;;;;;;5059894;28;45512;-76
2023/09/02 12:17:38;;;;;;;;;5.00;2.00;;;;;;;;5060001;28;45436;-77
2023/09/02 12:20:03;;;;;;;;;2.00;2.00;;;;;;;;5062488;28;46002;-75
2023/09/02 12:22:31;;;;;;;;;2.00;2.00;;;;;;;;5053225;28;45331;-75
2023/09/02 12:24:57;;;;;;;;;2.00;2.00;;;;;;;;5052762;28;45580;-76
2023/09/02 12:27:22;;;;;;;;;4.00;2.25;;;;;;;;5065218;27;45651;-75
2023/09/02 12:29:55;;;;;;;;;0.00;0.00;;;;;;;;5057505;28;46715;-75
2023/09/02 12:32:21;;;;;;;;;2.40;2.40;;;;;;;;5057625;28;45256;-75
2023/09/02 12:34:46;;;;;;;;;2.75;1.50;;;;;;;;5059469;28;45653;-75
2023/09/02 12:37:19;;;;;;;;;1.75;1.75;;;;;;;;5057904;28;45464;-73
2023/09/02 12:39:44;;;;;;;;;1.00;1.00;;;;;;;;5067116;28;47656;-74
2023/09/02 12:42:22;;;;;;;;;3.25;1.75;;;;;;;;5052391;28;45438;-73
2023/09/02 12:44:51;;;;;;;;;2.25;1.25;;;;;;;;5054637;28;45566;-74
2023/09/02 12:47:20;;;;;;;;;4.00;2.00;;;;;;;;5054906;28;45741;-73
2023/09/02 12:49:46;;;;;;;;;1.40;1.40;;;;;;;;5051305;28;45772;-73
2023/09/02 12:52:18;;;;;;;;;2.00;2.00;;;;;;;;5056003;28;45815;-72
2023/09/02 12:54:54;;;;;;;;;1.00;1.00;;;;;;;;5057193;28;45637;-74
2023/09/02 12:57:22;;;;;;;;;3.00;2.00;;;;;;;;5056999;28;46683;-76
2023/09/02 12:59:48;;;;;;;;;1.00;1.00;;;;;;;;5062754;28;46913;-75
2023/09/02 13:02:13;;;;;;;;;0.25;0.25;;;;;;;;5057991;28;45482;-75
2023/09/02 13:04:39;;;;;;;;;3.50;3.00;;;;;;;;5063243;28;45487;-76
2023/09/02 13:07:04;;;;;;;;;0.00;0.00;;;;;;;;5067373;28;46983;-75
2023/09/02 13:12:15;;;;;;;;;1.00;1.00;;;;;;;;5059735;28;45916;-75
2023/09/02 13:14:43;;;;;;;;;1.00;1.00;;;;;;;;5065116;28;45535;-74
2023/09/02 13:17:11;;;;;;;;;1.25;1.25;;;;;;;;5067872;28;45624;-75
2023/09/02 13:19:39;;;;;;;;;2.25;2.25;;;;;;;;5059552;28;45967;-75
2023/09/02 13:22:05;;;;;;;;;1.80;1.80;;;;;;;;5058724;27;45341;-75
2023/09/02 13:24:30;;;;;;;;;2.25;1.00;;;;;;;;5062777;28;45447;-75
2023/09/02 13:26:56;;;;;;;;;2.00;2.00;;;;;;;;5057597;28;45683;-75
2023/09/02 13:29:30;;;;;;;;;0.75;0.75;;;;;;;;5054969;28;46547;-76
2023/09/02 13:32:02;;;;;;;;;1.60;1.60;;;;;;;;5053987;28;45849;-75
2023/09/02 13:34:29;;;;;;;;;2.50;1.75;;;;;;;;5057196;28;45709;-75
2023/09/02 13:37:15;;;;;;;;;2.00;2.00;;;;;;;;5052296;28;47372;-75
2023/09/02 13:39:40;;;;;;;;;1.40;1.40;;;;;;;;5064118;28;45380;-74
2023/09/02 13:42:22;;;;;;;;;1.00;1.00;;;;;;;;5067921;28;45435;-73
2023/09/02 13:45:01;;;;;;;;;1.25;1.25;;;;;;;;5062301;28;45455;-74
2023/09/02 13:47:26;;;;;;;;;1.00;1.00;;;;;;;;5058394;28;45708;-72
2023/09/02 13:50:10;;;;;;;;;0.75;0.75;;;;;;;;5062077;27;46306;-74
2023/09/02 13:52:35;;;;;;;;;1.40;1.40;;;;;;;;5059977;28;45793;-72
2023/09/02 13:55:01;;;;;;;;;2.25;2.25;;;;;;;;5064700;27;45446;-73
2023/09/02 13:57:35;;;;;;;;;3.50;2.25;;;;;;;;5062911;28;45915;-74
2023/09/02 14:00:15;;;;;;;;;1.80;1.00;;;;;;;;5055380;27;45724;-74
2023/09/02 14:02:42;;;;;;;;;2.20;1.20;;;;;;;;5071400;28;45557;-74
2023/09/02 14:05:12;;;;;;;;;2.00;1.00;;;;;;;;5068307;28;45662;-73
2023/09/02 14:07:40;;;;;;;;;0.00;0.00;;;;;;;;5052165;28;45577;-74
2023/09/02 14:10:07;;;;;;;;;0.80;0.80;;;;;;;;5064959;28;45460;-72
2023/09/02 14:12:32;;;;;;;;;1.60;1.60;;;;;;;;5062681;28;45432;-73
2023/09/02 14:14:57;;;;;;;;;1.75;1.25;;;;;;;;5065383;28;45485;-73
2023/09/02 14:17:22;;;;;;;;;2.75;2.00;;;;;;;;5060578;27;45440;-74
2023/09/02 14:19:48;;;;;;;;;5.00;5.00;;;;;;;;5055396;28;47141;-74
2023/09/02 14:22:16;;;;;;;;;3.50;3.00;;;;;;;;5058904;27;45719;-74
2023/09/02 14:24:41;;;;;;;;;2.00;2.00;;;;;;;;5061645;28;45467;-75
2023/09/02 14:27:08;;;;;;;;;2.00;2.00;;;;;;;;5066053;27;46005;-74
2023/09/02 14:29:33;;;;;;;;;2.20;1.20;;;;;;;;5059987;27;46622;-73
2023/09/02 14:32:00;;;;;;;;;1.75;1.75;;;;;;;;5063191;28;45456;-72
2023/09/02 14:34:25;;;;;;;;;2.00;1.00;;;;;;;;5058514;28;45816;-74
2023/09/02 14:36:51;;;;;;;;;3.75;2.00;;;;;;;;5058883;28;47185;-73
2023/09/02 14:39:16;;;;;;;;;1.00;1.00;;;;;;;;5056450;28;46676;-73
2023/09/02 14:41:50;;;;;;;;;1.75;0.75;;;;;;;;5052993;28;45795;-74
2023/09/02 14:44:18;;;;;;;;;1.00;1.00;;;;;;;;5063216;28;45528;-74
2023/09/02 14:46:46;;;;;;;;;2.00;1.00;;;;;;;;5065207;28;45644;-73
2023/09/02 14:49:19;;;;;;;;;1.50;1.00;;;;;;;;5064277;28;46780;-73